Time;durP1;ratioP1;P1;durP2;ratioP2;P2;SDS_P1;SDS_P2;PMS_P1;PMS_P2;Temp;Humidity;BMP_temperature;BMP_pressure;BME280_temperature;BME280_humidity;BME280_pressure;Samples;Min_cycle;Max_cycle;Signal;HPM_P1;HPM_P2
2021/12/09 00:00:33;;;;;;;21.73;9.80;;;;;;;-4.89;100.00;96998.63;5066135;28;20159;-61
2021/12/09 00:03:05;;;;;;;24.53;10.00;;;;;;;-4.88;100.00;96997.72;5068562;28;20040;-61
2021/12/09 00:05:33;;;;;;;26.50;10.80;;;;;;;-4.81;100.00;97003.56;5068259;28;20062;-60
2021/12/09 00:08:00;;;;;;;21.50;9.93;;;;;;;-5.15;100.00;96991.34;5068311;28;20040;-60
2021/12/09 00:10:28;;;;;;;23.50;10.03;;;;;;;-5.06;100.00;96992.94;5067780;28;20552;-60
2021/12/09 00:12:55;;;;;;;19.30;9.07;;;;;;;-4.87;100.00;96971.22;5068034;28;20044;-60
2021/12/09 00:15:23;;;;;;;21.57;10.53;;;;;;;-4.96;100.00;96984.22;5066833;28;20416;-60
2021/12/09 00:17:50;;;;;;;26.47;12.23;;;;;;;-4.92;100.00;96980.72;5067363;28;20048;-60
2021/12/09 00:20:18;;;;;;;25.27;11.03;;;;;;;-4.95;100.00;96977.38;5067015;28;20064;-60
2021/12/09 00:22:47;;;;;;;27.73;11.77;;;;;;;-5.15;100.00;96978.56;5067301;28;20063;-59
2021/12/09 00:25:15;;;;;;;29.47;11.13;;;;;;;-4.99;100.00;96976.59;5067638;28;20174;-60
2021/12/09 00:27:45;;;;;;;21.33;10.67;;;;;;;-4.90;100.00;96983.25;5065739;28;20082;-60
2021/12/09 00:30:13;;;;;;;24.10;11.23;;;;;;;-4.93;100.00;96986.72;5066883;28;20070;-60
2021/12/09 00:32:41;;;;;;;26.53;12.33;;;;;;;-5.03;100.00;96977.50;5065769;28;20200;-60
2021/12/09 00:35:10;;;;;;;24.33;10.60;;;;;;;-4.92;100.00;96979.88;5067885;28;20044;-60
2021/12/09 00:37:42;;;;;;;26.47;11.30;;;;;;;-5.05;100.00;96980.97;5067796;28;20124;-61
2021/12/09 00:40:10;;;;;;;20.47;10.23;;;;;;;-5.01;100.00;96982.59;5068480;28;20829;-60
2021/12/09 00:42:37;;;;;;;23.33;10.70;;;;;;;-5.00;100.00;96985.16;5066470;28;20119;-61
2021/12/09 00:45:05;;;;;;;25.67;12.90;;;;;;;-5.07;100.00;96978.44;5068421;28;20044;-60
2021/12/09 00:47:32;;;;;;;26.73;11.03;;;;;;;-5.05;100.00;96989.47;5067783;28;20362;-60
2021/12/09 00:49:59;;;;;;;24.70;9.30;;;;;;;-5.07;100.00;96981.00;5067175;28;20036;-61
2021/12/09 00:52:27;;;;;;;21.87;10.63;;;;;;;-5.16;100.00;96986.25;5068603;28;20083;-60
2021/12/09 00:54:58;;;;;;;22.97;11.00;;;;;;;-5.16;100.00;96979.44;5068271;28;20044;-61
2021/12/09 00:57:25;;;;;;;19.47;9.00;;;;;;;-5.03;100.00;96971.53;5067631;28;20153;-60
2021/12/09 00:59:52;;;;;;;20.97;10.43;;;;;;;-4.97;100.00;96971.44;5068953;28;20132;-59
2021/12/09 01:02:20;;;;;;;21.10;9.27;;;;;;;-5.09;100.00;96964.81;5067937;28;20135;-59
2021/12/09 01:04:48;;;;;;;19.67;10.07;;;;;;;-5.08;100.00;96957.97;5069596;28;20055;-60
2021/12/09 01:07:15;;;;;;;18.73;8.27;;;;;;;-5.04;100.00;96964.72;5072314;28;20072;-60
2021/12/09 01:09:42;;;;;;;22.17;10.57;;;;;;;-5.18;100.00;96954.72;5072286;28;20040;-60
2021/12/09 01:12:12;;;;;;;19.00;8.83;;;;;;;-5.20;100.00;96959.88;5071198;28;20493;-60
2021/12/09 01:14:39;;;;;;;18.73;8.03;;;;;;;-5.20;100.00;96959.03;5071284;28;20477;-60
2021/12/09 01:17:08;;;;;;;20.30;10.43;;;;;;;-5.16;100.00;96966.63;5072241;28;20040;-61
2021/12/09 01:19:35;;;;;;;24.97;9.60;;;;;;;-5.09;100.00;96969.94;5072088;28;20051;-60
2021/12/09 01:22:04;;;;;;;19.50;8.40;;;;;;;-5.07;100.00;96957.94;5071970;28;20127;-60
2021/12/09 01:24:31;;;;;;;21.27;9.40;;;;;;;-5.10;100.00;96952.88;5071925;28;20074;-60
2021/12/09 01:26:59;;;;;;;21.87;10.10;;;;;;;-4.99;100.00;96952.69;5072009;28;20033;-60
2021/12/09 01:29:34;;;;;;;25.33;9.30;;;;;;;-5.21;100.00;96953.06;5070393;28;20033;-60
2021/12/09 01:32:06;;;;;;;23.40;9.03;;;;;;;-5.23;100.00;96947.13;5071774;28;20044;-60
2021/12/09 01:34:33;;;;;;;22.23;9.17;;;;;;;-5.16;100.00;96948.72;5071686;28;20051;-60
2021/12/09 01:37:01;;;;;;;23.93;9.63;;;;;;;-5.17;100.00;96948.72;5071506;28;20047;-60
2021/12/09 01:39:30;;;;;;;18.27;8.23;;;;;;;-5.13;100.00;96948.66;5071467;28;20093;-60
2021/12/09 01:41:58;;;;;;;25.13;10.33;;;;;;;-4.97;100.00;96945.81;5071341;28;20401;-60
2021/12/09 01:44:27;;;;;;;23.33;9.53;;;;;;;-5.05;100.00;96948.50;5071376;28;20048;-60
2021/12/09 01:46:56;;;;;;;24.57;9.47;;;;;;;-5.22;100.00;96955.66;5072553;28;20039;-60
2021/12/09 01:49:23;;;;;;;23.53;10.10;;;;;;;-5.06;100.00;96957.06;5072313;28;20052;-60
2021/12/09 01:51:50;;;;;;;17.90;7.83;;;;;;;-5.05;100.00;96953.63;5073068;28;20497;-60
2021/12/09 01:54:18;;;;;;;22.50;10.10;;;;;;;-5.08;100.00;96933.22;5072913;28;20036;-61
2021/12/09 01:56:45;;;;;;;27.83;10.83;;;;;;;-5.11;100.00;96938.41;5072023;28;20072;-60
2021/12/09 01:59:12;;;;;;;22.67;9.20;;;;;;;-5.20;100.00;96934.28;5072023;28;20041;-60
2021/12/09 02:01:41;;;;;;;24.70;9.77;;;;;;;-5.13;100.00;96941.84;5071943;28;20078;-60
2021/12/09 02:04:11;;;;;;;21.60;9.40;;;;;;;-5.17;100.00;96949.59;5072469;28;20044;-60
2021/12/09 02:06:41;;;;;;;21.20;9.07;;;;;;;-5.15;100.00;96952.13;5072019;28;20489;-60
2021/12/09 02:09:09;;;;;;;25.03;9.20;;;;;;;-5.21;100.00;96955.63;5073345;28;20045;-61
2021/12/09 02:11:36;;;;;;;26.60;11.20;;;;;;;-5.17;100.00;96964.09;5072990;28;20040;-61
2021/12/09 02:14:04;;;;;;;25.13;10.63;;;;;;;-5.11;100.00;96958.88;5072350;28;20060;-61
2021/12/09 02:16:32;;;;;;;23.57;10.93;;;;;;;-5.01;100.00;96967.25;5069444;28;20135;-61
2021/12/09 02:19:01;;;;;;;27.83;9.63;;;;;;;-5.03;100.00;96964.72;5071355;28;20101;-61
2021/12/09 02:21:32;;;;;;;22.30;10.33;;;;;;;-5.11;100.00;96972.50;5072436;28;20051;-59
2021/12/09 02:24:02;;;;;;;25.23;11.03;;;;;;;-5.05;100.00;96979.25;5071349;28;20044;-60
2021/12/09 02:26:31;;;;;;;25.97;11.37;;;;;;;-5.08;100.00;96981.88;5070301;28;20047;-60
2021/12/09 02:28:59;;;;;;;22.57;9.17;;;;;;;-5.09;100.00;96987.84;5070158;28;20443;-62
2021/12/09 02:31:28;;;;;;;24.33;10.23;;;;;;;-4.88;100.00;96991.75;5072775;28;20166;-60
2021/12/09 02:33:56;;;;;;;24.83;12.37;;;;;;;-4.80;100.00;96995.03;5071550;28;20464;-60
2021/12/09 02:36:23;;;;;;;23.43;10.73;;;;;;;-4.79;100.00;96989.03;5071133;28;20038;-61
2021/12/09 02:38:53;;;;;;;28.17;11.57;;;;;;;-4.88;100.00;97002.00;5070963;28;20048;-61
2021/12/09 02:41:23;;;;;;;25.10;11.87;;;;;;;-5.05;100.00;97011.72;5070441;28;20037;-61
2021/12/09 02:43:54;;;;;;;27.60;10.43;;;;;;;-5.02;100.00;97009.94;5070048;28;20046;-61
2021/12/09 02:46:24;;;;;;;25.13;12.77;;;;;;;-5.09;100.00;97010.91;5069201;28;20066;-61
2021/12/09 02:48:51;;;;;;;28.43;13.07;;;;;;;-4.83;100.00;97013.03;5070858;28;20048;-61
2021/12/09 02:51:18;;;;;;;24.77;11.30;;;;;;;-4.83;100.00;97013.03;5070659;28;20049;-61
2021/12/09 02:53:45;;;;;;;30.73;12.83;;;;;;;-4.90;100.00;97016.56;5069398;28;20064;-60
2021/12/09 02:56:14;;;;;;;28.07;13.23;;;;;;;-5.00;100.00;97012.47;5071569;28;20047;-61
2021/12/09 02:58:41;;;;;;;34.10;12.40;;;;;;;-4.95;100.00;97013.25;5053867;28;20067;-60
2021/12/09 03:01:15;;;;;;;31.37;12.87;;;;;;;-4.86;100.00;97013.06;5070622;28;20393;-60
2021/12/09 03:03:49;;;;;;;32.63;12.57;;;;;;;-4.87;100.00;97004.53;5070598;28;20529;-61
2021/12/09 03:06:18;;;;;;;30.73;12.30;;;;;;;-4.85;100.00;97002.81;5070595;28;20440;-60
2021/12/09 03:08:45;;;;;;;32.17;13.43;;;;;;;-4.85;100.00;96996.81;5070453;28;20047;-60
2021/12/09 03:11:19;;;;;;;31.53;13.20;;;;;;;-4.85;100.00;96991.69;5070497;28;20036;-60
2021/12/09 03:13:49;;;;;;;34.43;11.33;;;;;;;-4.84;100.00;96990.84;5070760;28;20086;-60
2021/12/09 03:16:19;;;;;;;36.63;15.10;;;;;;;-4.90;100.00;96994.38;5070744;28;20501;-60
2021/12/09 03:18:49;;;;;;;38.47;14.73;;;;;;;-4.83;100.00;97000.22;5070282;28;20481;-60
2021/12/09 03:21:17;;;;;;;30.43;12.40;;;;;;;-5.02;100.00;96993.72;5070065;28;20078;-59
2021/12/09 03:23:45;;;;;;;29.10;11.63;;;;;;;-4.87;100.00;96999.41;5070303;28;20434;-59
2021/12/09 03:26:12;;;;;;;30.07;12.30;;;;;;;-4.79;100.00;97005.28;5070166;28;20500;-61
2021/12/09 03:28:40;;;;;;;35.47;13.03;;;;;;;-4.90;100.00;97006.31;5069229;28;20044;-61
2021/12/09 03:31:11;;;;;;;33.53;14.17;;;;;;;-4.92;100.00;97003.78;5070355;28;20049;-60
2021/12/09 03:33:38;;;;;;;33.63;13.03;;;;;;;-4.99;100.00;97007.31;5069313;28;20063;-60
2021/12/09 03:36:07;;;;;;;37.17;14.47;;;;;;;-4.98;100.00;97016.69;5069070;28;20057;-61
2021/12/09 03:38:35;;;;;;;32.57;14.00;;;;;;;-4.84;100.00;97008.78;5069913;28;20032;-60
2021/12/09 03:41:02;;;;;;;31.17;13.30;;;;;;;-4.89;100.00;97018.25;5069981;28;20389;-60
2021/12/09 03:43:30;;;;;;;32.10;13.33;;;;;;;-4.87;100.00;97014.78;5069694;28;20087;-60
2021/12/09 03:46:00;;;;;;;34.37;12.00;;;;;;;-4.75;100.00;97018.84;5071049;28;20051;-60
2021/12/09 03:48:30;;;;;;;29.97;12.90;;;;;;;-4.89;100.00;97018.25;5070076;28;20042;-61
2021/12/09 03:50:57;;;;;;;31.50;12.27;;;;;;;-4.86;100.00;97025.88;5069795;28;20047;-60
2021/12/09 03:53:25;;;;;;;37.93;14.30;;;;;;;-4.77;100.00;97036.81;5070085;28;20119;-60
2021/12/09 03:55:53;;;;;;;32.70;13.00;;;;;;;-4.74;100.00;97030.78;5069846;28;20544;-60
2021/12/09 03:58:20;;;;;;;36.90;14.03;;;;;;;-4.79;100.00;97030.91;5069681;28;20123;-60
2021/12/09 04:00:49;;;;;;;34.07;11.37;;;;;;;-4.90;100.00;97026.81;5069849;28;20067;-60
2021/12/09 04:03:18;;;;;;;33.20;13.70;;;;;;;-5.15;100.00;97029.78;5069515;28;20044;-60
2021/12/09 04:05:46;;;;;;;34.40;15.17;;;;;;;-5.09;100.00;97026.25;5069736;28;20440;-60
2021/12/09 04:08:13;;;;;;;33.77;15.43;;;;;;;-4.87;100.00;97024.19;5069527;28;20447;-60
2021/12/09 04:10:41;;;;;;;40.53;15.80;;;;;;;-4.88;100.00;97032.75;5069523;28;20044;-60
2021/12/09 04:13:08;;;;;;;43.90;15.20;;;;;;;-4.84;100.00;97032.66;5069694;28;20037;-61
2021/12/09 04:15:36;;;;;;;38.93;12.77;;;;;;;-4.74;100.00;97030.78;5071269;28;20040;-61
2021/12/09 04:18:04;;;;;;;36.87;16.50;;;;;;;-4.77;100.00;97031.69;5070164;28;20413;-60
2021/12/09 04:20:32;;;;;;;41.20;14.97;;;;;;;-4.96;100.00;97034.59;5069532;28;20045;-61
2021/12/09 04:22:59;;;;;;;31.37;12.33;;;;;;;-4.94;100.00;97033.69;5068326;28;20053;-61
2021/12/09 04:25:27;;;;;;;39.67;14.47;;;;;;;-4.85;100.00;97037.81;5069228;28;20047;-61
2021/12/09 04:27:55;;;;;;;43.20;15.23;;;;;;;-4.86;100.00;97044.69;5069398;28;20037;-61
2021/12/09 04:30:23;;;;;;;45.27;14.67;;;;;;;-4.89;100.00;97046.44;5067992;28;20426;-61
2021/12/09 04:32:50;;;;;;;34.13;13.57;;;;;;;-4.75;100.00;97047.03;5069380;28;20077;-59
2021/12/09 04:35:17;;;;;;;38.30;15.27;;;;;;;-4.98;100.00;97044.84;5069752;28;20044;-60
2021/12/09 04:37:47;;;;;;;42.70;15.60;;;;;;;-4.81;100.00;97044.56;5069145;28;20086;-61
2021/12/09 04:40:15;;;;;;;39.57;13.20;;;;;;;-4.81;100.00;97042.00;5073231;28;20064;-61
2021/12/09 04:42:43;;;;;;;38.70;15.27;;;;;;;-4.78;100.00;97041.97;5074997;28;20072;-60
2021/12/09 04:45:11;;;;;;;40.57;13.37;;;;;;;-4.74;100.00;97044.47;5073667;28;20040;-60
2021/12/09 04:47:40;;;;;;;37.27;16.97;;;;;;;-4.81;100.00;97048.00;5074796;28;20064;-60
2021/12/09 04:50:08;;;;;;;35.00;14.10;;;;;;;-4.85;100.00;97056.59;5072191;28;20098;-60
2021/12/09 04:52:35;;;;;;;39.77;15.13;;;;;;;-4.84;100.00;97055.72;5072846;28;20040;-61
2021/12/09 04:55:04;;;;;;;42.30;16.53;;;;;;;-4.82;100.00;97060.81;5073171;28;20051;-61
2021/12/09 04:57:31;;;;;;;42.03;14.80;;;;;;;-4.88;100.00;97053.22;5072300;28;20056;-60
2021/12/09 04:59:58;;;;;;;44.20;16.50;;;;;;;-4.95;100.00;97067.03;5073846;28;20056;-61
2021/12/09 05:02:30;;;;;;;40.23;16.90;;;;;;;-4.97;100.00;97066.22;5073429;28;20110;-60
2021/12/09 05:04:57;;;;;;;46.65;16.50;;;;;;;-4.92;100.00;97075.50;5073120;28;20084;-61
2021/12/09 05:07:24;;;;;;;43.97;16.97;;;;;;;-4.89;100.00;97070.34;5073197;28;20067;-60
2021/12/09 05:09:52;;;;;;;45.47;15.93;;;;;;;-4.85;100.00;97064.28;5072698;28;20044;-61
2021/12/09 05:12:22;;;;;;;48.07;17.13;;;;;;;-4.88;100.00;97064.34;5072818;28;20075;-60
2021/12/09 05:14:49;;;;;;;49.50;16.00;;;;;;;-4.85;100.00;97055.75;5072764;28;20059;-61
2021/12/09 05:17:17;;;;;;;53.60;18.50;;;;;;;-4.85;100.00;97061.72;5072727;28;20157;-60
2021/12/09 05:19:46;;;;;;;56.17;19.43;;;;;;;-4.77;100.00;97061.59;5072455;28;20047;-60
2021/12/09 05:22:13;;;;;;;76.60;22.30;;;;;;;-4.88;100.00;97053.22;5072385;28;20033;-61
2021/12/09 05:24:40;;;;;;;69.17;20.50;;;;;;;-4.85;100.00;97051.47;5072524;28;20090;-60
2021/12/09 05:27:11;;;;;;;64.53;21.97;;;;;;;-4.96;100.00;97057.66;5073845;28;20049;-61
2021/12/09 05:29:41;;;;;;;60.90;19.87;;;;;;;-4.91;100.00;97061.00;5074113;28;20049;-60
2021/12/09 05:32:10;;;;;;;76.47;23.30;;;;;;;-4.82;100.00;97064.25;5072626;28;20041;-60
2021/12/09 05:34:41;;;;;;;75.07;24.73;;;;;;;-4.68;100.00;97072.53;5071252;28;20044;-60
2021/12/09 05:37:10;;;;;;;75.77;24.00;;;;;;;-4.75;100.00;97070.09;5072217;28;20051;-59
2021/12/09 05:39:39;;;;;;;68.33;23.60;;;;;;;-4.79;100.00;97074.44;5071603;28;20095;-60
2021/12/09 05:42:07;;;;;;;62.70;21.93;;;;;;;-4.77;100.00;97074.41;5070827;28;20466;-61
2021/12/09 05:44:35;;;;;;;78.73;24.20;;;;;;;-4.76;100.00;97069.25;5071935;28;20041;-61
2021/12/09 05:47:05;;;;;;;57.33;20.17;;;;;;;-4.83;100.00;97071.94;5071913;28;20463;-60
2021/12/09 05:49:33;;;;;;;74.17;22.23;;;;;;;-4.79;100.00;97076.16;5071912;28;20335;-61
2021/12/09 05:52:00;;;;;;;76.50;24.57;;;;;;;-4.85;100.00;97076.25;5071345;28;20848;-61
2021/12/09 05:54:27;;;;;;;70.80;21.57;;;;;;;-4.79;100.00;97078.72;5071853;28;20057;-61
2021/12/09 05:56:54;;;;;;;62.23;21.53;;;;;;;-4.91;100.00;97084.06;5072150;28;20160;-61
2021/12/09 05:59:21;;;;;;;60.50;22.80;;;;;;;-4.80;100.00;97082.97;5072068;28;20045;-61
2021/12/09 06:01:49;;;;;;;71.80;20.77;;;;;;;-4.77;100.00;97080.38;5072321;28;20040;-61
2021/12/09 06:04:17;;;;;;;73.70;20.87;;;;;;;-4.62;100.00;97080.09;5071756;28;20123;-61
2021/12/09 06:06:44;;;;;;;64.93;21.67;;;;;;;-4.64;100.00;97073.31;5071584;28;20086;-61
2021/12/09 06:09:12;;;;;;;60.53;19.83;;;;;;;-4.67;100.00;97063.97;5071706;28;20041;-60
2021/12/09 06:11:41;;;;;;;77.93;21.47;;;;;;;-4.80;100.00;97067.59;5071552;28;20143;-60
2021/12/09 06:14:09;;;;;;;69.03;22.67;;;;;;;-4.69;100.00;97073.41;5071737;28;20079;-60
2021/12/09 06:16:36;;;;;;;64.07;22.17;;;;;;;-4.73;100.00;97074.31;5071706;28;20037;-60
2021/12/09 06:19:05;;;;;;;65.87;20.07;;;;;;;-4.81;100.00;97072.75;5071404;28;20548;-60
2021/12/09 06:21:34;;;;;;;64.63;21.43;;;;;;;-4.84;100.00;97073.66;5072401;28;20048;-60
2021/12/09 06:24:02;;;;;;;61.63;21.20;;;;;;;-4.73;100.00;97068.38;5072561;28;20043;-61
2021/12/09 06:26:31;;;;;;;69.97;23.13;;;;;;;-4.77;100.00;97074.41;5071215;28;20409;-61
2021/12/09 06:28:58;;;;;;;74.03;22.30;;;;;;;-4.77;100.00;97079.53;5071277;28;20047;-61
2021/12/09 06:31:26;;;;;;;67.57;21.13;;;;;;;-4.65;100.00;97081.91;5072231;28;20048;-60
2021/12/09 06:33:54;;;;;;;75.77;23.20;;;;;;;-4.67;100.00;97089.59;5073083;28;20469;-61
2021/12/09 06:36:21;;;;;;;76.33;21.70;;;;;;;-4.58;100.00;97093.75;5071530;28;20048;-60
2021/12/09 06:38:50;;;;;;;65.57;23.23;;;;;;;-4.71;100.00;97099.94;5071065;28;20102;-61
2021/12/09 06:41:17;;;;;;;76.97;22.87;;;;;;;-4.80;100.00;97107.78;5070914;28;20098;-60
2021/12/09 06:43:45;;;;;;;69.63;22.07;;;;;;;-4.70;100.00;97110.16;5070938;28;20511;-61
2021/12/09 06:46:13;;;;;;;69.00;21.03;;;;;;;-4.83;100.00;97111.22;5070720;28;20052;-60
2021/12/09 06:48:41;;;;;;;79.93;23.13;;;;;;;-4.66;100.00;97106.66;5071250;28;20489;-60
2021/12/09 06:51:09;;;;;;;345.33;165.67;;;;;;;-4.09;100.00;97099.66;5070786;28;20054;-59
2021/12/09 06:53:37;;;;;;;156.93;66.10;;;;;;;-3.81;100.00;97101.63;5070824;28;20052;-61
2021/12/09 06:56:06;;;;;;;78.30;24.67;;;;;;;-4.18;100.00;97104.94;5070787;28;20102;-61
2021/12/09 06:58:34;;;;;;;64.03;19.93;;;;;;;-4.47;100.00;97107.22;5070729;28;20127;-62
2021/12/09 07:01:01;;;;;;;70.13;20.13;;;;;;;-4.31;100.00;97111.19;5070556;28;20055;-61
2021/12/09 07:03:28;;;;;;;69.47;21.83;;;;;;;-4.49;100.00;97112.38;5069785;28;20040;-61
2021/12/09 07:05:57;;;;;;;87.80;21.87;;;;;;;-4.64;100.00;97114.34;5070320;28;20468;-61
2021/12/09 07:08:24;;;;;;;60.27;19.40;;;;;;;-4.59;100.00;97115.94;5070801;28;20037;-60
2021/12/09 07:10:52;;;;;;;84.13;21.33;;;;;;;-4.53;100.00;97112.44;5070548;28;20090;-60
2021/12/09 07:13:21;;;;;;;86.47;22.93;;;;;;;-4.41;100.00;97109.66;5070385;28;20044;-61
2021/12/09 07:15:48;;;;;;;88.73;22.03;;;;;;;-4.33;100.00;97106.06;5070629;28;20047;-62
2021/12/09 07:18:20;;;;;;;85.20;23.80;;;;;;;-4.44;100.00;97104.56;5068722;28;20127;-60
2021/12/09 07:20:48;;;;;;;141.10;26.40;;;;;;;-4.32;100.00;97106.94;5070117;28;20056;-60
2021/12/09 07:23:15;;;;;;;93.77;20.87;;;;;;;-4.71;100.00;97118.72;5069858;28;20044;-61
2021/12/09 07:25:42;;;;;;;85.30;21.47;;;;;;;-4.48;100.00;97115.75;5069315;28;20386;-60
2021/12/09 07:28:09;;;;;;;70.53;21.10;;;;;;;-4.46;100.00;97111.47;5069862;28;20048;-62
2021/12/09 07:30:38;;;;;;;66.07;20.73;;;;;;;-4.55;100.00;97115.03;5070374;28;20389;-61
2021/12/09 07:33:05;;;;;;;80.20;20.97;;;;;;;-4.32;100.00;97106.94;5070113;28;20044;-61
2021/12/09 07:35:33;;;;;;;54.60;14.83;;;;;;;-4.46;100.00;97102.03;5070152;28;20052;-67
2021/12/09 07:38:01;;;;;;;66.50;17.03;;;;;;;-4.29;100.00;97110.28;5070071;28;20043;-62
2021/12/09 07:40:28;;;;;;;62.70;18.27;;;;;;;-4.16;100.00;97104.06;5072047;28;20070;-62
2021/12/09 07:42:55;;;;;;;54.87;16.77;;;;;;;-4.10;100.00;97103.09;5072284;28;20072;-62
2021/12/09 07:45:23;;;;;;;54.13;16.83;;;;;;;-4.16;100.00;97109.19;5071446;28;20051;-62
2021/12/09 07:47:52;;;;;;;55.20;17.63;;;;;;;-4.01;100.00;97105.47;5071844;28;20044;-62
2021/12/09 07:50:22;;;;;;;53.53;16.57;;;;;;;-4.20;100.00;97107.56;5070492;28;20089;-63
2021/12/09 07:52:51;;;;;;;46.03;17.87;;;;;;;-3.88;100.00;97100.06;5071684;28;20105;-61
2021/12/09 07:55:20;;;;;;;40.57;15.00;;;;;;;-4.24;100.00;97105.91;5071139;28;20471;-62
2021/12/09 07:57:48;;;;;;;42.37;15.37;;;;;;;-3.77;100.00;97102.44;5071127;28;20049;-62
2021/12/09 08:00:18;;;;;;;44.27;16.27;;;;;;;-3.82;100.00;97109.38;5071148;28;20072;-62
2021/12/09 08:02:46;;;;;;;46.67;17.50;;;;;;;-3.84;100.00;97104.25;5071126;28;20485;-62
2021/12/09 08:05:17;;;;;;;43.23;17.47;;;;;;;-3.66;100.00;97103.06;5071797;28;20060;-60
2021/12/09 08:07:44;;;;;;;44.93;15.23;;;;;;;-3.46;100.00;97112.03;5070977;28;20037;-62
2021/12/09 08:10:13;;;;;;;39.90;16.03;;;;;;;-3.46;100.00;97121.44;5071089;28;20051;-62
2021/12/09 08:12:41;;;;;;;42.10;14.70;;;;;;;-3.32;100.00;97112.56;5071319;28;20063;-62
2021/12/09 08:15:10;;;;;;;38.43;16.10;;;;;;;-3.60;100.00;97121.75;5067165;28;20127;-66
2021/12/09 08:20:30;;;;;;;39.40;13.50;;;;;;;-3.45;100.00;97125.69;5061071;28;20081;-64
2021/12/09 08:22:57;;;;;;;40.13;14.73;;;;;;;-3.09;100.00;97112.91;5070483;28;20114;-64
2021/12/09 08:25:26;;;;;;;37.27;12.50;;;;;;;-3.39;100.00;97111.03;5071167;28;20106;-64
2021/12/09 08:27:53;;;;;;;34.53;13.90;;;;;;;-3.25;100.00;97118.44;5071736;28;20124;-64
2021/12/09 08:30:22;;;;;;;34.27;14.77;;;;;;;-3.28;100.00;97105.66;5070757;28;20068;-64
2021/12/09 08:32:49;;;;;;;39.20;15.00;;;;;;;-3.28;100.00;97114.22;5070079;28;20068;-64
2021/12/09 08:35:16;;;;;;;38.23;13.57;;;;;;;-2.92;100.00;97100.50;5070557;28;20405;-63
2021/12/09 08:37:46;;;;;;;37.87;13.97;;;;;;;-3.50;100.00;97102.72;5070380;28;20469;-63
2021/12/09 08:40:15;;;;;;;36.57;14.50;;;;;;;-3.22;100.00;97090.13;5066350;28;20086;-63
2021/12/09 08:42:44;;;;;;;39.83;14.10;;;;;;;-3.31;100.00;97090.31;5070193;28;20305;-63
2021/12/09 08:45:13;;;;;;;37.20;15.83;;;;;;;-3.03;100.00;97092.19;5067371;28;20036;-64
2021/12/09 08:47:41;;;;;;;38.53;14.00;;;;;;;-2.79;100.00;97090.78;5072565;28;20072;-63
2021/12/09 08:50:11;;;;;;;37.27;13.77;;;;;;;-3.07;100.00;97090.59;5070327;28;20389;-64
2021/12/09 08:52:39;;;;;;;37.50;14.43;;;;;;;-2.80;100.00;97092.53;5068763;28;20064;-63
2021/12/09 08:55:10;;;;;;;44.90;16.10;;;;;;;-2.36;100.00;97093.97;5069607;28;20431;-64
2021/12/09 08:57:37;;;;;;;43.77;15.63;;;;;;;-2.00;100.00;97093.00;5069800;28;20067;-62
2021/12/09 09:00:09;;;;;;;44.60;16.67;;;;;;;-2.42;100.00;97088.97;5067027;28;20032;-64
2021/12/09 09:02:37;;;;;;;41.10;15.80;;;;;;;-2.40;100.00;97084.66;5068277;28;20417;-61
2021/12/09 09:05:08;;;;;;;41.60;16.43;;;;;;;-2.30;100.00;97097.22;5070009;28;20076;-62
2021/12/09 09:07:35;;;;;;;43.57;16.27;;;;;;;-2.33;100.00;97087.00;5069565;28;20062;-61
2021/12/09 09:10:02;;;;;;;45.03;17.03;;;;;;;-1.91;100.00;97085.03;5067868;28;20094;-64
2021/12/09 09:12:30;;;;;;;41.00;16.37;;;;;;;-2.12;100.00;97081.31;5066990;28;20481;-63
2021/12/09 09:14:57;;;;;;;42.90;18.60;;;;;;;-2.67;100.00;97083.63;5067736;28;20044;-67
2021/12/09 09:17:24;;;;;;;42.63;17.00;;;;;;;-2.88;100.00;97067.88;5069039;28;20447;-66
2021/12/09 09:19:51;;;;;;;42.00;18.33;;;;;;;-2.63;100.00;97074.94;5068240;28;20430;-71
2021/12/09 09:22:18;;;;;;;46.03;17.57;;;;;;;-2.42;100.00;97074.41;5067899;28;20056;-71
2021/12/09 09:24:45;;;;;;;45.90;19.27;;;;;;;-2.26;100.00;97073.09;5074635;28;20186;-67
2021/12/09 09:27:13;;;;;;;43.67;18.10;;;;;;;-2.57;100.00;97073.94;5074127;28;20102;-69
2021/12/09 09:29:42;;;;;;;47.80;18.40;;;;;;;-2.73;100.00;97086.31;5075315;28;20447;-66
2021/12/09 09:32:12;;;;;;;46.83;18.23;;;;;;;-2.16;100.00;97078.84;5069278;28;20055;-68
2021/12/09 09:34:39;;;;;;;43.73;16.83;;;;;;;-2.59;100.00;97086.00;5074929;28;20033;-67
2021/12/09 09:37:07;;;;;;;41.63;15.53;;;;;;;-2.91;100.00;97091.94;5072935;28;20052;-68
2021/12/09 09:39:34;;;;;;;45.03;16.43;;;;;;;-2.38;100.00;97090.59;5072680;28;20033;-68
2021/12/09 09:42:19;;;;;;;42.83;17.93;;;;;;;-2.69;100.00;97092.25;5071753;28;20063;-69
2021/12/09 09:44:55;;;;;;;44.30;18.63;;;;;;;-2.69;100.00;97079.41;5073121;28;20071;-67
2021/12/09 09:47:23;;;;;;;47.53;16.17;;;;;;;-2.22;100.00;97072.13;5069471;28;20131;-68
2021/12/09 09:49:51;;;;;;;41.67;16.00;;;;;;;-2.56;100.00;97070.47;5074388;28;20116;-68
2021/12/09 09:52:19;;;;;;;47.60;20.40;;;;;;;-2.90;100.00;97075.63;5069311;28;20460;-69
2021/12/09 09:54:46;;;;;;;52.77;20.00;;;;;;;-2.49;100.00;97067.72;5074187;28;20044;-69
2021/12/09 09:57:14;;;;;;;39.97;16.63;;;;;;;-2.37;100.00;97062.25;5075111;28;20112;-68
2021/12/09 09:59:42;;;;;;;36.97;16.40;;;;;;;-2.36;100.00;97061.41;5074813;28;20058;-67
2021/12/09 10:02:11;;;;;;;66.87;29.63;;;;;;;-2.12;100.00;97057.28;5074220;28;20040;-67
2021/12/09 10:04:45;;;;;;;35.27;14.87;;;;;;;-1.93;100.00;97058.50;5074709;28;20131;-67
2021/12/09 10:07:14;;;;;;;38.17;17.00;;;;;;;-2.43;100.00;97059.00;5072763;28;20051;-67
2021/12/09 10:09:41;;;;;;;38.63;15.73;;;;;;;-2.01;100.00;97050.13;5074658;28;20450;-68
2021/12/09 10:12:10;;;;;;;43.73;17.30;;;;;;;-1.94;100.00;97054.22;5072154;28;20047;-69
2021/12/09 10:14:38;;;;;;;41.50;17.47;;;;;;;-1.86;100.00;97047.13;5074488;28;20045;-68
2021/12/09 10:17:08;;;;;;;40.80;18.00;;;;;;;-1.62;100.00;97038.69;5073901;28;20039;-69
2021/12/09 10:19:39;;;;;;;51.83;19.77;;;;;;;-1.84;100.00;97041.06;5072089;28;20063;-67
2021/12/09 10:22:16;;;;;;;46.43;18.90;;;;;;;-2.15;100.00;97047.13;5055938;28;20048;-72
2021/12/09 10:24:45;;;;;;;46.63;16.83;;;;;;;-2.17;100.00;97038.56;5073773;28;20106;-68
2021/12/09 10:27:17;;;;;;;50.67;19.53;;;;;;;-2.08;100.00;97039.16;5072105;28;20052;-70
2021/12/09 10:29:46;;;;;;;43.23;20.60;;;;;;;-2.24;100.00;97042.19;5074056;28;20040;-73
2021/12/09 10:32:23;;;;;;;52.93;21.73;;;;;;;-2.23;100.00;97041.31;5072639;28;20041;-68
2021/12/09 10:34:52;;;;;;;46.10;20.73;;;;;;;-2.23;100.00;97036.16;5066026;28;20048;-67
2021/12/09 10:37:22;;;;;;;46.17;18.07;;;;;;;-2.26;100.00;97039.66;5073972;28;20060;-68
2021/12/09 10:39:51;;;;;;;49.40;18.93;;;;;;;-1.94;100.00;97029.31;5074047;28;20450;-72
2021/12/09 10:42:24;;;;;;;44.47;19.00;;;;;;;-1.53;100.00;97028.09;5073985;28;20033;-68
2021/12/09 10:44:55;;;;;;;44.25;18.15;;;;;;;-2.31;100.00;97027.81;5072962;28;20094;-67
2021/12/09 10:47:47;;;;;;;38.83;17.93;;;;;;;-1.95;100.00;97029.38;5074153;28;20482;-67
2021/12/09 10:50:26;;;;;;;38.30;17.70;;;;;;;-1.84;100.00;97028.19;5074343;28;20041;-68
2021/12/09 10:53:00;;;;;;;43.67;16.53;;;;;;;-1.61;100.00;97032.66;5073830;28;20083;-67
2021/12/09 10:55:31;;;;;;;44.30;17.43;;;;;;;-1.84;100.00;97028.19;5074110;28;20456;-68
2021/12/09 10:58:05;;;;;;;44.37;16.23;;;;;;;-1.97;100.00;97036.28;5073644;28;20036;-68
2021/12/09 11:00:40;;;;;;;42.70;17.77;;;;;;;-2.11;100.00;97038.41;5069722;28;20044;-68
2021/12/09 11:03:14;;;;;;;37.67;17.20;;;;;;;-1.86;100.00;97034.25;5071881;28;20084;-69
2021/12/09 11:05:45;;;;;;;36.30;15.80;;;;;;;-2.58;100.00;97041.41;5073783;28;20158;-68
2021/12/09 11:08:25;;;;;;;36.57;15.63;;;;;;;-2.35;100.00;97041.63;5073649;28;20037;-67
2021/12/09 11:11:00;;;;;;;34.70;15.27;;;;;;;-2.43;100.00;97036.72;5073397;28;20078;-67
2021/12/09 11:13:37;;;;;;;35.07;14.83;;;;;;;-2.20;100.00;97038.66;5073606;28;20040;-68
2021/12/09 11:16:06;;;;;;;34.60;15.23;;;;;;;-2.18;100.00;97042.03;5073273;28;20045;-67
2021/12/09 11:18:38;;;;;;;35.77;15.33;;;;;;;-1.93;100.00;97027.63;5073445;28;20424;-67